sensor_id;sensor_type;location;lat;lon;timestamp;pressure;altitude;pressure_sealevel;temperature;humidity
46347;BME280;32057;47.830;19.046;2023-02-04T00:00:07;99893.38;;;3.07;100.00
46347;BME280;32057;47.830;19.046;2023-02-04T00:02:35;99892.44;;;3.05;100.00
46347;BME280;32057;47.830;19.046;2023-02-04T00:05:02;99883.03;;;3.05;100.00
46347;BME280;32057;47.830;19.046;2023-02-04T00:07:27;99886.59;;;3.09;100.00
46347;BME280;32057;47.830;19.046;2023-02-04T00:09:53;99889.25;;;3.10;100.00
46347;BME280;32057;47.830;19.046;2023-02-04T00:12:18;99900.47;;;3.12;100.00
46347;BME280;32057;47.830;19.046;2023-02-04T00:14:44;99893.72;;;3.14;100.00
46347;BME280;32057;47.830;19.046;2023-02-04T00:17:09;99903.38;;;3.20;100.00
46347;BME280;32057;47.830;19.046;2023-02-04T00:19:39;99898.31;;;3.22;100.00
46347;BME280;32057;47.830;19.046;2023-02-04T00:22:06;99900.75;;;3.18;100.00
46347;BME280;32057;47.830;19.046;2023-02-04T00:24:33;99895.75;;;3.22;100.00
46347;BME280;32057;47.830;19.046;2023-02-04T00:26:58;99896.72;;;3.25;100.00
46347;BME280;32057;47.830;19.046;2023-02-04T00:29:24;99887.38;;;3.27;100.00
46347;BME280;32057;47.830;19.046;2023-02-04T00:31:49;99882.25;;;3.27;100.00
46347;BME280;32057;47.830;19.046;2023-02-04T00:34:14;99871.41;;;3.34;100.00
46347;BME280;32057;47.830;19.046;2023-02-04T00:36:40;99876.66;;;3.37;100.00
46347;BME280;32057;47.830;19.046;2023-02-04T00:39:05;99873.22;;;3.37;100.00
46347;BME280;32057;47.830;19.046;2023-02-04T00:41:30;99886.16;;;3.38;100.00
46347;BME280;32057;47.830;19.046;2023-02-04T00:43:56;99874.22;;;3.41;100.00
46347;BME280;32057;47.830;19.046;2023-02-04T00:46:21;99873.44;;;3.42;100.00
46347;BME280;32057;47.830;19.046;2023-02-04T00:48:46;99875.31;;;3.46;100.00
46347;BME280;32057;47.830;19.046;2023-02-04T00:51:12;99870.19;;;3.46;100.00
46347;BME280;32057;47.830;19.046;2023-02-04T00:53:38;99871.13;;;3.48;100.00
46347;BME280;32057;47.830;19.046;2023-02-04T00:56:03;99880.72;;;3.52;100.00
46347;BME280;32057;47.830;19.046;2023-02-04T00:58:29;99882.59;;;3.56;100.00
46347;BME280;32057;47.830;19.046;2023-02-04T01:00:54;99872.31;;;3.56;100.00
46347;BME280;32057;47.830;19.046;2023-02-04T01:03:19;99863.69;;;3.55;100.00
46347;BME280;32057;47.830;19.046;2023-02-04T01:05:45;99868.09;;;3.58;100.00
46347;BME280;32057;47.830;19.046;2023-02-04T01:08:10;99865.59;;;3.59;100.00
46347;BME280;32057;47.830;19.046;2023-02-04T01:10:36;99855.25;;;3.58;100.00
46347;BME280;32057;47.830;19.046;2023-02-04T01:13:03;99850.19;;;3.61;100.00
46347;BME280;32057;47.830;19.046;2023-02-04T01:15:29;99841.75;;;3.64;100.00
46347;BME280;32057;47.830;19.046;2023-02-04T01:17:54;99841.78;;;3.65;100.00
46347;BME280;32057;47.830;19.046;2023-02-04T01:20:20;99834.06;;;3.65;100.00
46347;BME280;32057;47.830;19.046;2023-02-04T01:22:45;99830.63;;;3.65;100.00
46347;BME280;32057;47.830;19.046;2023-02-04T01:25:10;99838.41;;;3.66;100.00
46347;BME280;32057;47.830;19.046;2023-02-04T01:27:36;99836.63;;;3.65;100.00
46347;BME280;32057;47.830;19.046;2023-02-04T01:30:03;99834.75;;;3.61;100.00
46347;BME280;32057;47.830;19.046;2023-02-04T01:32:28;99838.16;;;3.60;100.00
46347;BME280;32057;47.830;19.046;2023-02-04T01:34:54;99832.16;;;3.59;100.00
46347;BME280;32057;47.830;19.046;2023-02-04T01:37:19;99833.81;;;3.59;100.00
46347;BME280;32057;47.830;19.046;2023-02-04T01:39:44;99830.44;;;3.60;100.00
46347;BME280;32057;47.830;19.046;2023-02-04T01:42:10;99828.19;;;3.68;100.00
46347;BME280;32057;47.830;19.046;2023-02-04T01:44:36;99825.53;;;3.66;100.00
46347;BME280;32057;47.830;19.046;2023-02-04T01:47:01;99831.63;;;3.68;100.00
46347;BME280;32057;47.830;19.046;2023-02-04T01:49:27;99823.16;;;3.71;100.00
46347;BME280;32057;47.830;19.046;2023-02-04T01:51:53;99829.31;;;3.74;100.00
46347;BME280;32057;47.830;19.046;2023-02-04T01:54:19;99834.28;;;3.70;100.00
46347;BME280;32057;47.830;19.046;2023-02-04T01:56:48;99828.34;;;3.72;100.00
46347;BME280;32057;47.830;19.046;2023-02-04T01:59:17;99835.25;;;3.73;100.00
46347;BME280;32057;47.830;19.046;2023-02-04T02:01:51;99837.03;;;3.74;100.00
46347;BME280;32057;47.830;19.046;2023-02-04T02:04:20;99838.66;;;3.72;100.00
46347;BME280;32057;47.830;19.046;2023-02-04T02:06:53;99831.63;;;3.68;100.00
46347;BME280;32057;47.830;19.046;2023-02-04T02:09:23;99833.38;;;3.69;100.00
46347;BME280;32057;47.830;19.046;2023-02-04T02:11:49;99824.00;;;3.71;100.00
46347;BME280;32057;47.830;19.046;2023-02-04T02:14:15;99828.50;;;3.75;100.00
46347;BME280;32057;47.830;19.046;2023-02-04T02:16:40;99825.09;;;3.76;100.00
46347;BME280;32057;47.830;19.046;2023-02-04T02:19:09;99816.59;;;3.79;100.00
46347;BME280;32057;47.830;19.046;2023-02-04T02:21:50;99797.66;;;3.77;100.00
46347;BME280;32057;47.830;19.046;2023-02-04T02:24:24;99800.22;;;3.77;100.00
46347;BME280;32057;47.830;19.046;2023-02-04T02:26:51;99795.97;;;3.77;100.00
46347;BME280;32057;47.830;19.046;2023-02-04T02:29:18;99792.75;;;3.83;100.00
46347;BME280;32057;47.830;19.046;2023-02-04T02:31:43;99792.97;;;3.89;100.00
46347;BME280;32057;47.830;19.046;2023-02-04T02:34:09;99799.72;;;3.86;100.00
46347;BME280;32057;47.830;19.046;2023-02-04T02:36:34;99799.81;;;3.89;100.00
46347;BME280;32057;47.830;19.046;2023-02-04T02:39:00;99801.53;;;3.88;100.00
46347;BME280;32057;47.830;19.046;2023-02-04T02:41:26;99799.59;;;3.83;100.00
46347;BME280;32057;47.830;19.046;2023-02-04T02:43:51;99803.47;;;3.94;100.00
46347;BME280;32057;47.830;19.046;2023-02-04T02:46:17;99805.22;;;3.95;100.00
46347;BME280;32057;47.830;19.046;2023-02-04T02:48:42;99794.16;;;3.97;100.00
46347;BME280;32057;47.830;19.046;2023-02-04T02:51:08;99802.06;;;4.02;100.00
46347;BME280;32057;47.830;19.046;2023-02-04T02:53:34;99795.97;;;4.00;100.00
46347;BME280;32057;47.830;19.046;2023-02-04T02:56:00;99802.88;;;4.01;100.00
46347;BME280;32057;47.830;19.046;2023-02-04T02:58:31;99812.28;;;4.01;100.00
46347;BME280;32057;47.830;19.046;2023-02-04T03:00:59;99824.41;;;4.03;100.00
46347;BME280;32057;47.830;19.046;2023-02-04T03:03:27;99816.63;;;4.02;100.00
46347;BME280;32057;47.830;19.046;2023-02-04T03:06:00;99814.00;;;4.00;100.00
46347;BME280;32057;47.830;19.046;2023-02-04T03:08:27;99810.34;;;3.95;100.00
46347;BME280;32057;47.830;19.046;2023-02-04T03:10:53;99814.00;;;4.00;100.00
46347;BME280;32057;47.830;19.046;2023-02-04T03:13:19;99816.56;;;4.00;100.00
46347;BME280;32057;47.830;19.046;2023-02-04T03:15:46;99827.66;;;3.99;100.00
46347;BME280;32057;47.830;19.046;2023-02-04T03:18:13;99824.16;;;3.97;100.00
46347;BME280;32057;47.830;19.046;2023-02-04T03:20:40;99826.69;;;3.95;100.00
46347;BME280;32057;47.830;19.046;2023-02-04T03:23:06;99812.69;;;3.89;100.00
46347;BME280;32057;47.830;19.046;2023-02-04T03:25:32;99814.56;;;3.93;100.00
46347;BME280;32057;47.830;19.046;2023-02-04T03:27:58;99801.69;;;3.93;100.00
46347;BME280;32057;47.830;19.046;2023-02-04T03:30:24;99812.28;;;4.01;100.00
46347;BME280;32057;47.830;19.046;2023-02-04T03:32:50;99814.94;;;4.02;100.00
46347;BME280;32057;47.830;19.046;2023-02-04T03:35:16;99811.50;;;4.02;100.00
46347;BME280;32057;47.830;19.046;2023-02-04T03:37:42;99806.22;;;3.98;100.00
46347;BME280;32057;47.830;19.046;2023-02-04T03:40:08;99818.28;;;3.99;100.00
46347;BME280;32057;47.830;19.046;2023-02-04T03:42:34;99822.59;;;4.01;100.00
46347;BME280;32057;47.830;19.046;2023-02-04T03:44:59;99814.75;;;3.97;100.00
46347;BME280;32057;47.830;19.046;2023-02-04T03:47:25;99817.28;;;3.96;100.00
46347;BME280;32057;47.830;19.046;2023-02-04T03:49:50;99820.31;;;3.86;100.00
46347;BME280;32057;47.830;19.046;2023-02-04T03:52:16;99807.31;;;3.83;100.00
46347;BME280;32057;47.830;19.046;2023-02-04T03:54:41;99810.03;;;3.86;100.00
46347;BME280;32057;47.830;19.046;2023-02-04T03:57:07;99812.22;;;3.76;100.00
46347;BME280;32057;47.830;19.046;2023-02-04T03:59:32;99813.16;;;3.78;100.00
46347;BME280;32057;47.830;19.046;2023-02-04T04:01:57;99806.06;;;3.73;100.00
46347;BME280;32057;47.830;19.046;2023-02-04T04:04:23;99802.63;;;3.72;100.00
46347;BME280;32057;47.830;19.046;2023-02-04T04:06:48;99798.47;;;3.76;100.00
46347;BME280;32057;47.830;19.046;2023-02-04T04:09:14;99790.06;;;3.80;100.00
46347;BME280;32057;47.830;19.046;2023-02-04T04:11:39;99797.94;;;3.85;100.00
46347;BME280;32057;47.830;19.046;2023-02-04T04:14:05;99790.16;;;3.83;100.00
46347;BME280;32057;47.830;19.046;2023-02-04T04:16:30;99799.34;;;3.76;100.00
46347;BME280;32057;47.830;19.046;2023-02-04T04:18:55;99793.13;;;3.71;100.00
46347;BME280;32057;47.830;19.046;2023-02-04T04:21:21;99780.28;;;3.71;100.00
46347;BME280;32057;47.830;19.046;2023-02-04T04:23:47;99785.38;;;3.70;100.00
46347;BME280;32057;47.830;19.046;2023-02-04T04:26:12;99783.78;;;3.73;100.00
46347;BME280;32057;47.830;19.046;2023-02-04T04:28:38;99783.78;;;3.73;100.00
46347;BME280;32057;47.830;19.046;2023-02-04T04:31:03;99785.69;;;3.77;100.00
46347;BME280;32057;47.830;19.046;2023-02-04T04:33:29;99780.41;;;3.74;100.00
46347;BME280;32057;47.830;19.046;2023-02-04T04:35:54;99769.25;;;3.74;100.00
46347;BME280;32057;47.830;19.046;2023-02-04T04:38:19;99768.47;;;3.76;100.00
46347;BME280;32057;47.830;19.046;2023-02-04T04:40:45;99770.13;;;3.74;100.00
46347;BME280;32057;47.830;19.046;2023-02-04T04:43:10;99764.97;;;3.74;100.00
46347;BME280;32057;47.830;19.046;2023-02-04T04:45:36;99755.47;;;3.73;100.00
46347;BME280;32057;47.830;19.046;2023-02-04T04:48:02;99759.88;;;3.76;100.00
46347;BME280;32057;47.830;19.046;2023-02-04T04:50:27;99749.00;;;3.83;100.00
46347;BME280;32057;47.830;19.046;2023-02-04T04:52:53;99741.34;;;3.85;100.00
46347;BME280;32057;47.830;19.046;2023-02-04T04:55:18;99732.81;;;3.86;100.00
46347;BME280;32057;47.830;19.046;2023-02-04T04:57:43;99725.09;;;3.86;100.00
46347;BME280;32057;47.830;19.046;2023-02-04T05:00:16;99718.34;;;3.89;100.00
46347;BME280;32057;47.830;19.046;2023-02-04T05:02:42;99712.44;;;3.92;100.00
46347;BME280;32057;47.830;19.046;2023-02-04T05:05:08;99704.00;;;3.96;100.00
46347;BME280;32057;47.830;19.046;2023-02-04T05:07:33;99708.31;;;3.97;100.00
46347;BME280;32057;47.830;19.046;2023-02-04T05:09:58;99698.00;;;3.95;100.00
46347;BME280;32057;47.830;19.046;2023-02-04T05:12:24;99688.34;;;3.90;100.00
46347;BME280;32057;47.830;19.046;2023-02-04T05:14:49;99685.00;;;3.92;100.00
46347;BME280;32057;47.830;19.046;2023-02-04T05:17:15;99697.09;;;3.95;100.00
46347;BME280;32057;47.830;19.046;2023-02-04T05:19:40;99683.50;;;3.99;100.00
46347;BME280;32057;47.830;19.046;2023-02-04T05:22:05;99677.56;;;4.00;100.00
46347;BME280;32057;47.830;19.046;2023-02-04T05:24:31;99685.16;;;3.97;100.00
46347;BME280;32057;47.830;19.046;2023-02-04T05:26:56;99688.50;;;3.94;100.00
46347;BME280;32057;47.830;19.046;2023-02-04T05:29:22;99700.50;;;3.94;100.00
46347;BME280;32057;47.830;19.046;2023-02-04T05:31:47;99699.66;;;3.95;100.00
46347;BME280;32057;47.830;19.046;2023-02-04T05:34:12;99691.84;;;3.92;100.00
46347;BME280;32057;47.830;19.046;2023-02-04T05:36:38;99698.81;;;3.94;100.00
46347;BME280;32057;47.830;19.046;2023-02-04T05:39:03;99677.44;;;3.97;100.00
46347;BME280;32057;47.830;19.046;2023-02-04T05:41:29;99700.50;;;3.94;100.00
46347;BME280;32057;47.830;19.046;2023-02-04T05:43:54;99690.09;;;3.91;100.00
46347;BME280;32057;47.830;19.046;2023-02-04T05:46:19;99717.38;;;3.86;100.00
46347;BME280;32057;47.830;19.046;2023-02-04T05:48:45;99718.88;;;3.81;100.00
46347;BME280;32057;47.830;19.046;2023-02-04T05:51:10;99726.59;;;3.81;100.00
46347;BME280;32057;47.830;19.046;2023-02-04T05:53:36;99729.06;;;3.77;100.00
46347;BME280;32057;47.830;19.046;2023-02-04T05:56:01;99741.69;;;3.71;100.00
46347;BME280;32057;47.830;19.046;2023-02-04T05:58:26;99754.53;;;3.71;100.00
46347;BME280;32057;47.830;19.046;2023-02-04T06:01:01;99749.22;;;3.67;100.00
46347;BME280;32057;47.830;19.046;2023-02-04T06:03:28;99748.19;;;3.62;100.00
46347;BME280;32057;47.830;19.046;2023-02-04T06:05:55;99743.75;;;3.57;100.00
46347;BME280;32057;47.830;19.046;2023-02-04T06:08:20;99767.56;;;3.53;100.00
46347;BME280;32057;47.830;19.046;2023-02-04T06:10:46;99773.53;;;3.52;100.00
46347;BME280;32057;47.830;19.046;2023-02-04T06:13:11;99785.16;;;3.43;100.00
46347;BME280;32057;47.830;19.046;2023-02-04T06:15:37;99795.13;;;3.35;100.00
46347;BME280;32057;47.830;19.046;2023-02-04T06:18:02;99815.84;;;3.38;100.00
46347;BME280;32057;47.830;19.046;2023-02-04T06:20:28;99789.13;;;3.34;100.00
46347;BME280;32057;47.830;19.046;2023-02-04T06:22:53;99812.09;;;3.30;100.00
46347;BME280;32057;47.830;19.046;2023-02-04T06:25:20;99801.66;;;3.27;100.00
46347;BME280;32057;47.830;19.046;2023-02-04T06:27:45;99813.47;;;3.22;100.00
46347;BME280;32057;47.830;19.046;2023-02-04T06:30:12;99808.38;;;3.23;100.00
46347;BME280;32057;47.830;19.046;2023-02-04T06:32:37;99806.47;;;3.19;100.00
46347;BME280;32057;47.830;19.046;2023-02-04T06:35:03;99810.69;;;3.17;100.00
46347;BME280;32057;47.830;19.046;2023-02-04T06:37:28;99815.97;;;3.20;100.00
46347;BME280;32057;47.830;19.046;2023-02-04T06:39:54;99832.88;;;3.15;100.00
46347;BME280;32057;47.830;19.046;2023-02-04T06:42:22;99828.69;;;3.17;100.00
46347;BME280;32057;47.830;19.046;2023-02-04T06:44:47;99844.78;;;3.13;100.00
46347;BME280;32057;47.830;19.046;2023-02-04T06:47:13;99861.59;;;3.05;100.00
46347;BME280;32057;47.830;19.046;2023-02-04T06:49:38;99865.00;;;3.04;100.00
46347;BME280;32057;47.830;19.046;2023-02-04T06:52:03;99852.84;;;3.01;100.00
46347;BME280;32057;47.830;19.046;2023-02-04T06:54:29;99847.53;;;2.96;100.00
46347;BME280;32057;47.830;19.046;2023-02-04T06:56:55;99868.09;;;2.96;100.00
46347;BME280;32057;47.830;19.046;2023-02-04T06:59:21;99861.13;;;2.94;100.00
46347;BME280;32057;47.830;19.046;2023-02-04T07:01:49;99862.81;;;2.93;100.00
46347;BME280;32057;47.830;19.046;2023-02-04T07:04:14;99862.75;;;2.92;100.00
46347;BME280;32057;47.830;19.046;2023-02-04T07:06:40;99860.91;;;2.89;100.00
46347;BME280;32057;47.830;19.046;2023-02-04T07:09:05;99867.75;;;2.89;100.00
46347;BME280;32057;47.830;19.046;2023-02-04T07:11:31;99857.81;;;2.96;100.00
46347;BME280;32057;47.830;19.046;2023-02-04T07:13:56;99867.94;;;2.93;100.00
46347;BME280;32057;47.830;19.046;2023-02-04T07:16:22;99867.91;;;2.92;100.00
46347;BME280;32057;47.830;19.046;2023-02-04T07:18:47;99888.03;;;3.02;100.00
46347;BME280;32057;47.830;19.046;2023-02-04T07:21:16;99903.59;;;3.05;100.00
46347;BME280;32057;47.830;19.046;2023-02-04T07:23:41;99887.28;;;3.05;99.17
46347;BME280;32057;47.830;19.046;2023-02-04T07:26:07;99921.81;;;3.10;100.00
46347;BME280;32057;47.830;19.046;2023-02-04T07:28:32;99920.56;;;3.21;100.00
46347;BME280;32057;47.830;19.046;2023-02-04T07:30:57;99937.16;;;3.28;100.00
46347;BME280;32057;47.830;19.046;2023-02-04T07:33:23;99930.31;;;3.28;96.00
46347;BME280;32057;47.830;19.046;2023-02-04T07:35:48;99946.69;;;3.30;97.40
46347;BME280;32057;47.830;19.046;2023-02-04T07:38:14;99947.72;;;3.35;99.85
46347;BME280;32057;47.830;19.046;2023-02-04T07:40:40;99957.72;;;3.28;100.00
46347;BME280;32057;47.830;19.046;2023-02-04T07:43:06;99964.81;;;3.14;97.61
46347;BME280;32057;47.830;19.046;2023-02-04T07:45:31;99961.16;;;3.09;100.00
46347;BME280;32057;47.830;19.046;2023-02-04T07:47:57;99964.94;;;3.17;100.00
46347;BME280;32057;47.830;19.046;2023-02-04T07:50:22;99983.50;;;3.10;97.78
46347;BME280;32057;47.830;19.046;2023-02-04T07:52:48;99990.84;;;3.02;97.64
46347;BME280;32057;47.830;19.046;2023-02-04T07:55:13;99999.03;;;3.13;97.61
46347;BME280;32057;47.830;19.046;2023-02-04T07:57:39;99998.09;;;3.11;95.27
46347;BME280;32057;47.830;19.046;2023-02-04T08:00:04;100020.19;;;3.07;99.71
46347;BME280;32057;47.830;19.046;2023-02-04T08:02:30;100028.81;;;3.08;100.00
46347;BME280;32057;47.830;19.046;2023-02-04T08:04:56;100024.34;;;3.04;99.73
46347;BME280;32057;47.830;19.046;2023-02-04T08:07:21;100037.13;;;3.02;97.13
46347;BME280;32057;47.830;19.046;2023-02-04T08:09:47;100053.56;;;3.06;99.20
46347;BME280;32057;47.830;19.046;2023-02-04T08:12:12;100057.09;;;3.08;96.72
46347;BME280;32057;47.830;19.046;2023-02-04T08:14:37;100052.81;;;3.08;96.90
46347;BME280;32057;47.830;19.046;2023-02-04T08:17:03;100057.09;;;3.08;98.23
46347;BME280;32057;47.830;19.046;2023-02-04T08:19:28;100075.41;;;3.15;97.33
46347;BME280;32057;47.830;19.046;2023-02-04T08:21:53;100084.97;;;3.18;99.32
46347;BME280;32057;47.830;19.046;2023-02-04T08:24:19;100088.50;;;3.20;99.97
46347;BME280;32057;47.830;19.046;2023-02-04T08:26:44;100085.50;;;3.11;95.52
46347;BME280;32057;47.830;19.046;2023-02-04T08:29:10;100083.28;;;3.18;94.89
46347;BME280;32057;47.830;19.046;2023-02-04T08:31:36;100104.81;;;3.21;94.79
46347;BME280;32057;47.830;19.046;2023-02-04T08:34:03;100134.78;;;3.20;95.48
46347;BME280;32057;47.830;19.046;2023-02-04T08:36:29;100121.94;;;3.20;91.55
46347;BME280;32057;47.830;19.046;2023-02-04T08:38:54;100136.47;;;3.19;96.75
46347;BME280;32057;47.830;19.046;2023-02-04T08:41:20;100149.34;;;3.19;95.30
46347;BME280;32057;47.830;19.046;2023-02-04T08:43:45;100146.22;;;3.27;92.92
46347;BME280;32057;47.830;19.046;2023-02-04T08:46:11;100149.16;;;3.34;97.16
46347;BME280;32057;47.830;19.046;2023-02-04T08:48:37;100163.75;;;3.35;89.62
46347;BME280;32057;47.830;19.046;2023-02-04T08:51:02;100150.97;;;3.37;85.24
46347;BME280;32057;47.830;19.046;2023-02-04T08:53:28;100177.84;;;3.62;85.63
46347;BME280;32057;47.830;19.046;2023-02-04T08:55:53;100175.22;;;3.79;88.71
46347;BME280;32057;47.830;19.046;2023-02-04T08:58:19;100190.59;;;3.78;84.63
46347;BME280;32057;47.830;19.046;2023-02-04T09:00:44;100198.31;;;3.78;83.86
46347;BME280;32057;47.830;19.046;2023-02-04T09:03:10;100218.56;;;3.70;80.81
46347;BME280;32057;47.830;19.046;2023-02-04T09:05:35;100218.78;;;3.57;81.13
46347;BME280;32057;47.830;19.046;2023-02-04T09:08:00;100223.34;;;3.63;81.33
46347;BME280;32057;47.830;19.046;2023-02-04T09:10:26;100236.78;;;3.57;79.71
46347;BME280;32057;47.830;19.046;2023-02-04T09:12:51;100254.50;;;3.51;79.09
46347;BME280;32057;47.830;19.046;2023-02-04T09:15:22;100262.41;;;3.54;79.41
46347;BME280;32057;47.830;19.046;2023-02-04T09:17:48;100279.50;;;3.53;79.13
46347;BME280;32057;47.830;19.046;2023-02-04T09:20:14;100258.41;;;3.61;76.17
46347;BME280;32057;47.830;19.046;2023-02-04T09:22:39;100297.44;;;3.70;75.99
46347;BME280;32057;47.830;19.046;2023-02-04T09:25:05;100317.38;;;3.74;76.36
46347;BME280;32057;47.830;19.046;2023-02-04T09:27:31;100318.25;;;3.74;75.89
46347;BME280;32057;47.830;19.046;2023-02-04T09:29:56;100348.84;;;3.68;76.43
46347;BME280;32057;47.830;19.046;2023-02-04T09:32:22;100355.97;;;3.56;76.08
46347;BME280;32057;47.830;19.046;2023-02-04T09:34:47;100370.94;;;3.47;71.38
46347;BME280;32057;47.830;19.046;2023-02-04T09:37:13;100383.66;;;3.44;73.78
46347;BME280;32057;47.830;19.046;2023-02-04T09:39:38;100387.03;;;3.43;72.50
46347;BME280;32057;47.830;19.046;2023-02-04T09:42:04;100387.50;;;3.35;71.59
46347;BME280;32057;47.830;19.046;2023-02-04T09:44:29;100391.00;;;3.36;72.78
46347;BME280;32057;47.830;19.046;2023-02-04T09:46:57;100412.94;;;3.29;71.19
46347;BME280;32057;47.830;19.046;2023-02-04T09:49:24;100421.47;;;3.28;70.38
46347;BME280;32057;47.830;19.046;2023-02-04T09:51:50;100430.88;;;3.28;70.96
46347;BME280;32057;47.830;19.046;2023-02-04T09:54:21;100426.31;;;3.22;71.57
46347;BME280;32057;47.830;19.046;2023-02-04T09:56:47;100444.44;;;3.25;75.97
46347;BME280;32057;47.830;19.046;2023-02-04T09:59:21;100451.50;;;3.29;72.04
46347;BME280;32057;47.830;19.046;2023-02-04T10:01:59;100461.00;;;3.30;69.57
46347;BME280;32057;47.830;19.046;2023-02-04T10:04:26;100467.84;;;3.30;71.14
46347;BME280;32057;47.830;19.046;2023-02-04T10:06:52;100468.63;;;3.29;72.23
46347;BME280;32057;47.830;19.046;2023-02-04T10:09:20;100487.69;;;3.32;70.49
46347;BME280;32057;47.830;19.046;2023-02-04T10:11:47;100491.00;;;3.30;70.75
46347;BME280;32057;47.830;19.046;2023-02-04T10:14:17;100500.53;;;3.32;73.20
46347;BME280;32057;47.830;19.046;2023-02-04T10:16:47;100509.03;;;3.31;73.19
46347;BME280;32057;47.830;19.046;2023-02-04T10:19:15;100504.06;;;3.34;70.95
46347;BME280;32057;47.830;19.046;2023-02-04T10:21:43;100506.19;;;3.42;70.38
46347;BME280;32057;47.830;19.046;2023-02-04T10:24:14;100536.69;;;3.68;70.11
46347;BME280;32057;47.830;19.046;2023-02-04T10:26:40;100527.25;;;3.85;67.94
46347;BME280;32057;47.830;19.046;2023-02-04T10:29:14;100534.69;;;3.97;67.92
46347;BME280;32057;47.830;19.046;2023-02-04T10:31:43;100530.09;;;4.08;69.49
46347;BME280;32057;47.830;19.046;2023-02-04T10:36:41;100544.22;;;3.98;67.28
46347;BME280;32057;47.830;19.046;2023-02-04T10:39:17;100552.00;;;3.99;68.83
46347;BME280;32057;47.830;19.046;2023-02-04T10:41:51;100562.31;;;3.99;67.64
46347;BME280;32057;47.830;19.046;2023-02-04T10:44:19;100575.72;;;4.10;69.55
46347;BME280;32057;47.830;19.046;2023-02-04T10:46:45;100599.09;;;3.81;68.96
46347;BME280;32057;47.830;19.046;2023-02-04T10:49:22;100603.69;;;3.86;70.36
46347;BME280;32057;47.830;19.046;2023-02-04T10:51:49;100617.34;;;3.85;67.79
46347;BME280;32057;47.830;19.046;2023-02-04T10:54:18;100626.50;;;3.96;68.56
46347;BME280;32057;47.830;19.046;2023-02-04T10:59:31;100655.16;;;3.86;66.56
46347;BME280;32057;47.830;19.046;2023-02-04T11:02:00;100661.75;;;3.81;67.61
46347;BME280;32057;47.830;19.046;2023-02-04T11:04:26;100669.06;;;3.73;67.06
46347;BME280;32057;47.830;19.046;2023-02-04T11:06:53;100691.25;;;3.71;65.70
46347;BME280;32057;47.830;19.046;2023-02-04T11:09:19;100694.78;;;3.73;67.53
46347;BME280;32057;47.830;19.046;2023-02-04T11:11:47;100701.16;;;3.80;67.60
46347;BME280;32057;47.830;19.046;2023-02-04T11:14:27;100708.97;;;3.82;66.11
46347;BME280;32057;47.830;19.046;2023-02-04T11:16:54;100706.41;;;3.98;66.78
46347;BME280;32057;47.830;19.046;2023-02-04T11:19:37;100714.78;;;3.94;63.75
46347;BME280;32057;47.830;19.046;2023-02-04T11:22:07;100710.28;;;3.90;63.99
46347;BME280;32057;47.830;19.046;2023-02-04T11:24:33;100730.38;;;3.97;64.25
46347;BME280;32057;47.830;19.046;2023-02-04T11:27:23;100712.34;;;3.97;63.56
46347;BME280;32057;47.830;19.046;2023-02-04T11:29:50;100722.59;;;3.95;61.23
46347;BME280;32057;47.830;19.046;2023-02-04T11:32:37;100758.22;;;3.88;58.81
46347;BME280;32057;47.830;19.046;2023-02-04T11:37:41;100769.63;;;3.76;61.17
46347;BME280;32057;47.830;19.046;2023-02-04T11:40:27;100775.19;;;3.84;61.46
46347;BME280;32057;47.830;19.046;2023-02-04T11:43:02;100783.31;;;3.92;63.02
46347;BME280;32057;47.830;19.046;2023-02-04T11:45:30;100762.41;;;4.02;63.10
46347;BME280;32057;47.830;19.046;2023-02-04T11:47:59;100787.84;;;4.12;62.81
46347;BME280;32057;47.830;19.046;2023-02-04T11:50:31;100785.78;;;4.22;63.55
46347;BME280;32057;47.830;19.046;2023-02-04T11:52:58;100787.84;;;4.12;64.00
46347;BME280;32057;47.830;19.046;2023-02-04T11:55:27;100799.75;;;4.10;61.60
46347;BME280;32057;47.830;19.046;2023-02-04T11:57:54;100794.16;;;4.17;62.39
46347;BME280;32057;47.830;19.046;2023-02-04T12:00:23;100824.22;;;4.18;62.74
46347;BME280;32057;47.830;19.046;2023-02-04T12:02:54;100822.72;;;3.91;58.97
46347;BME280;32057;47.830;19.046;2023-02-04T12:05:21;100831.06;;;4.02;60.52
46347;BME280;32057;47.830;19.046;2023-02-04T12:07:47;100823.91;;;4.12;59.09
46347;BME280;32057;47.830;19.046;2023-02-04T12:10:22;100835.63;;;4.07;58.69
46347;BME280;32057;47.830;19.046;2023-02-04T12:12:54;100833.47;;;4.15;58.07
46347;BME280;32057;47.830;19.046;2023-02-04T12:15:23;100839.13;;;4.24;60.95
46347;BME280;32057;47.830;19.046;2023-02-04T12:18:04;100857.16;;;4.08;59.85
46347;BME280;32057;47.830;19.046;2023-02-04T12:20:31;100847.16;;;3.97;56.97
46347;BME280;32057;47.830;19.046;2023-02-04T12:22:56;100886.16;;;4.05;59.50
46347;BME280;32057;47.830;19.046;2023-02-04T12:25:22;100885.84;;;3.99;58.49
46347;BME280;32057;47.830;19.046;2023-02-04T12:27:47;100887.38;;;3.81;55.92
46347;BME280;32057;47.830;19.046;2023-02-04T12:30:13;100888.06;;;3.93;58.19
46347;BME280;32057;47.830;19.046;2023-02-04T12:32:38;100882.22;;;3.95;58.34
46347;BME280;32057;47.830;19.046;2023-02-04T12:35:04;100879.69;;;4.12;59.60
46347;BME280;32057;47.830;19.046;2023-02-04T12:37:30;100900.31;;;3.97;59.18
46347;BME280;32057;47.830;19.046;2023-02-04T12:39:55;100910.06;;;4.03;59.47
46347;BME280;32057;47.830;19.046;2023-02-04T12:42:21;100914.97;;;3.98;58.45
46347;BME280;32057;47.830;19.046;2023-02-04T12:44:46;100926.59;;;3.91;57.08
46347;BME280;32057;47.830;19.046;2023-02-04T12:47:12;100937.28;;;3.97;59.72
46347;BME280;32057;47.830;19.046;2023-02-04T12:49:37;100938.16;;;3.98;58.70
46347;BME280;32057;47.830;19.046;2023-02-04T12:52:04;100922.97;;;3.88;59.14
46347;BME280;32057;47.830;19.046;2023-02-04T12:54:29;100937.47;;;3.86;58.66